AFL704 LSZH-UGTB
Flight info
| Callsign | AFL704 |
|---|---|
| Flight time | N/A |
| Altitude | 35000 |
| Route | DEGES Z2 XEBIX N871 BADVI L725 UNKEN DCT EPOLA DCT SASAL DCT BUG DCT GOXGE DCT IRLOX DCT PELUR DCT RIVOS DCT ADINA L851 KUGOS UL851 KARDE UN644 ROLIN N644 LAGAS |
| Aircraft | A20N/M-SDE1FGHIJ1M1RWY/S |
Departure
| Time | 2026-05-01 15:30 |
|---|---|
| Airport | Zürich Airport (LSZH) |
Arrival
| Time | N/A |
|---|---|
| Airport | Tbilisi International Airport (UGTB) |
| Time | Latitude | Longitude | Altitude | Speed | Heading |
|---|---|---|---|---|---|
| 2026-05-01 14:54 | 47.46077 | 8.55243 | 1396 ft | 0 kts | 7° |
| 2026-05-01 15:16 | 47.46051 | 8.55238 | 1397 ft | 2 kts | 7° |
| 2026-05-01 15:17 | 47.46021 | 8.55233 | 1397 ft | 2 kts | 7° |
| 2026-05-01 15:18 | 47.45987 | 8.55202 | 1396 ft | 1 kts | 90° |
| 2026-05-01 15:18 | 47.45988 | 8.55193 | 1396 ft | 1 kts | 100° |
| 2026-05-01 15:19 | 47.45988 | 8.55189 | 1396 ft | 0 kts | 97° |
| 2026-05-01 15:20 | 47.45984 | 8.55238 | 1397 ft | 5 kts | 97° |
| 2026-05-01 15:20 | 47.45979 | 8.55309 | 1398 ft | 9 kts | 97° |
| 2026-05-01 15:20 | 47.45970 | 8.55419 | 1400 ft | 12 kts | 96° |
| 2026-05-01 15:21 | 47.45962 | 8.55556 | 1402 ft | 13 kts | 95° |
| 2026-05-01 15:21 | 47.45953 | 8.55683 | 1403 ft | 11 kts | 96° |
| 2026-05-01 15:21 | 47.45945 | 8.55796 | 1405 ft | 10 kts | 96° |
| 2026-05-01 15:21 | 47.45938 | 8.55892 | 1406 ft | 8 kts | 98° |
| 2026-05-01 15:22 | 47.45860 | 8.55925 | 1407 ft | 4 kts | 161° |
| 2026-05-01 15:22 | 47.45842 | 8.55965 | 1408 ft | 4 kts | 102° |
| 2026-05-01 15:22 | 47.45838 | 8.56016 | 1408 ft | 6 kts | 95° |
| 2026-05-01 15:23 | 47.45834 | 8.56082 | 1410 ft | 6 kts | 96° |
| 2026-05-01 15:23 | 47.45829 | 8.56154 | 1411 ft | 7 kts | 96° |
| 2026-05-01 15:23 | 47.45823 | 8.56238 | 1412 ft | 9 kts | 96° |
| 2026-05-01 15:23 | 47.45816 | 8.56341 | 1413 ft | 11 kts | 96° |
| 2026-05-01 15:24 | 47.45808 | 8.56456 | 1415 ft | 9 kts | 95° |
| 2026-05-01 15:24 | 47.45802 | 8.56549 | 1417 ft | 9 kts | 96° |
| 2026-05-01 15:24 | 47.45794 | 8.56652 | 1419 ft | 10 kts | 96° |
| 2026-05-01 15:24 | 47.45787 | 8.56749 | 1420 ft | 8 kts | 96° |
| 2026-05-01 15:25 | 47.45781 | 8.56835 | 1422 ft | 8 kts | 96° |
| 2026-05-01 15:25 | 47.45776 | 8.56918 | 1423 ft | 7 kts | 96° |
| 2026-05-01 15:25 | 47.45763 | 8.56999 | 1424 ft | 7 kts | 119° |
| 2026-05-01 15:25 | 47.45754 | 8.57017 | 1424 ft | 0 kts | 139° |
| 2026-05-01 15:26 | 47.45711 | 8.57028 | 1424 ft | 6 kts | 188° |
| 2026-05-01 15:27 | 47.45687 | 8.57022 | 1425 ft | 3 kts | 197° |
| 2026-05-01 15:27 | 47.45663 | 8.56983 | 1425 ft | 7 kts | 262° |
| 2026-05-01 15:27 | 47.45664 | 8.56942 | 1424 ft | 0 kts | 275° |
| 2026-05-01 15:28 | 47.45664 | 8.56940 | 1424 ft | 1 kts | 277° |
| 2026-05-01 15:29 | 47.45671 | 8.56887 | 1424 ft | 4 kts | 279° |
| 2026-05-01 15:29 | 47.45701 | 8.56509 | 1417 ft | 78 kts | 276° |
| 2026-05-01 15:29 | 47.45912 | 8.53532 | 1610 ft | 187 kts | 277° |
| 2026-05-01 15:30 | 47.46177 | 8.49559 | 2964 ft | 204 kts | 278° |
| 2026-05-01 15:31 | 47.42699 | 8.42548 | 5108 ft | 262 kts | 240° |
| 2026-05-01 15:31 | 47.42063 | 8.37309 | 6706 ft | 266 kts | 257° |
| 2026-05-01 15:32 | 47.39536 | 8.33769 | 8243 ft | 266 kts | 185° |
| 2026-05-01 15:32 | 47.36445 | 8.35977 | 9727 ft | 265 kts | 117° |
| 2026-05-01 15:33 | 47.37336 | 8.43640 | 11727 ft | 279 kts | 44° |
| 2026-05-01 15:34 | 47.42677 | 8.46959 | 13557 ft | 289 kts | 45° |